This is the latest recevied weather packets stored in our database for station/object SR9WXM. If no packets are shown the sender has not sent any weather packets the latest 1 day(s).
| Time | Temp. | Humidity | Pressure | Rain* | Wind** | Luminosity | Snow |
|---|---|---|---|---|---|---|---|
| 1778000842 | 16.67° C | 100% | 0 hPa | - | 6.71 m/s, 204° | - | - |
| 1778000600 | 17.22° C | 100% | 0 hPa | - | 5.81 m/s, 216° | - | - |
| 1778000360 | 17.22° C | 100% | 0 hPa | - | 4.47 m/s, 214° | - | - |
| 1778000120 | 17.22° C | 100% | 0 hPa | - | 6.71 m/s, 204° | - | - |
| 1777999880 | 17.22° C | 100% | 0 hPa | - | 4.92 m/s, 234° | - | - |
| 1777999633 | 17.22° C | 100% | 0 hPa | - | 5.81 m/s, 216° | - | - |
| 1777999391 | 17.78° C | 100% | 0 hPa | - | 5.81 m/s, 204° | - | - |
| 1777999151 | 17.22° C | 100% | 0 hPa | - | 5.81 m/s, 207° | - | - |
| 1777998911 | 17.22° C | 100% | 0 hPa | - | 5.81 m/s, 204° | - | - |
| 1777998671 | 17.22° C | 100% | 0 hPa | - | 6.26 m/s, 201° | - | - |
| 1777998431 | 17.22° C | 100% | 0 hPa | - | 6.26 m/s, 204° | - | - |
| 1777998189 | 17.78° C | 100% | 0 hPa | - | 4.92 m/s, 212° | - | - |
| 1777997949 | 17.78° C | 100% | 0 hPa | - | 5.81 m/s, 214° | - | - |
| 1777997709 | 17.78° C | 100% | 0 hPa | - | 4.47 m/s, 219° | - | - |
| 1777997469 | 17.78° C | 100% | 0 hPa | - | 4.92 m/s, 207° | - | - |
| 1777997229 | 17.22° C | 100% | 0 hPa | - | 5.36 m/s, 211° | - | - |
| 1777996987 | 17.22° C | 100% | 0 hPa | - | 5.36 m/s, 208° | - | - |
| 1777996747 | 17.22° C | 100% | 0 hPa | - | 4.02 m/s, 214° | - | - |
| 1777996507 | 17.22° C | 100% | 0 hPa | - | 5.81 m/s, 196° | - | - |
| 1777996267 | 17.78° C | 100% | 0 hPa | - | 6.71 m/s, 205° | - | - |
| 1777996027 | 17.78° C | 100% | 0 hPa | - | 5.81 m/s, 203° | - | - |
| 1777995786 | 17.78° C | 100% | 0 hPa | - | 6.71 m/s, 205° | - | - |
| 1777995546 | 17.78° C | 100% | 0 hPa | - | 6.26 m/s, 199° | - | - |
| 1777995306 | 17.78° C | 100% | 0 hPa | - | 6.26 m/s, 204° | - | - |
| 1777995066 | 17.78° C | 100% | 0 hPa | - | 8.94 m/s, 195° | - | - |
* Rain since midnight (hover to see other rain measurements)
** Current wind speed in m/s (hover to see current wind gust speed)